Time;durP1;ratioP1;P1;durP2;ratioP2;P2;SDS_P1;SDS_P2;PMS_P1;PMS_P2;Temp;Humidity;BMP_temperature;BMP_pressure;BME280_temperature;BME280_humidity;BME280_pressure;Samples;Min_cycle;Max_cycle;Signal;HPM_P1;HPM_P2
2021/04/26 00:00:34;;;;;;;6.50;2.55;;;3.10;92.20;;;;;;5081145;28;20759;-60
2021/04/26 00:03:00;;;;;;;6.63;2.20;;;3.10;92.30;;;;;;5079319;28;20507;-60
2021/04/26 00:05:27;;;;;;;7.10;2.22;;;3.00;92.30;;;;;;5084278;28;20118;-60
2021/04/26 00:07:56;;;;;;;9.07;2.72;;;3.00;92.40;;;;;;5077578;28;20485;-60
2021/04/26 00:10:24;;;;;;;8.82;2.78;;;2.90;92.00;;;;;;5069104;28;20044;-60
2021/04/26 00:12:50;;;;;;;10.15;2.40;;;2.90;92.40;;;;;;5084374;28;20086;-60
2021/04/26 00:15:19;;;;;;;13.65;3.55;;;2.90;92.20;;;;;;5073904;28;20031;-60
2021/04/26 00:17:46;;;;;;;10.45;3.13;;;2.80;91.90;;;;;;5078484;28;20105;-60
2021/04/26 00:20:13;;;;;;;6.40;2.40;;;2.80;92.40;;;;;;5076061;28;20207;-60
2021/04/26 00:22:42;;;;;;;8.82;3.03;;;2.70;92.40;;;;;;5078026;28;20102;-60
2021/04/26 00:25:08;;;;;;;7.60;3.17;;;2.60;92.80;;;;;;5070792;28;20044;-60
2021/04/26 00:27:35;;;;;;;5.95;2.75;;;2.50;93.00;;;;;;5083574;28;20441;-60
2021/04/26 00:30:06;;;;;;;5.50;2.30;;;2.50;92.90;;;;;;5082133;28;20039;-60
2021/04/26 00:32:35;;;;;;;10.75;2.45;;;2.50;93.00;;;;;;5084824;28;20028;-62
2021/04/26 00:35:01;;;;;;;7.43;2.28;;;2.40;92.60;;;;;;5077781;28;20081;-62
2021/04/26 00:37:27;;;;;;;9.50;2.42;;;2.40;92.90;;;;;;5079479;28;20051;-62
2021/04/26 00:39:52;;;;;;;8.13;3.55;;;2.30;93.20;;;;;;5075056;28;20056;-62
2021/04/26 00:42:18;;;;;;;7.53;3.03;;;2.30;93.50;;;;;;5082307;28;20072;-62
2021/04/26 00:44:44;;;;;;;5.88;2.47;;;2.30;93.30;;;;;;5071784;28;20472;-62
2021/04/26 00:47:10;;;;;;;6.78;2.75;;;2.30;93.30;;;;;;5081055;28;20050;-60
2021/04/26 00:49:36;;;;;;;11.18;3.40;;;2.20;93.40;;;;;;5086790;28;20036;-59
2021/04/26 00:52:02;;;;;;;7.95;2.60;;;2.20;93.80;;;;;;5070230;28;21473;-60
2021/04/26 00:54:28;;;;;;;10.07;2.83;;;2.10;93.90;;;;;;5079241;28;20499;-60
2021/04/26 00:56:54;;;;;;;9.30;3.22;;;2.10;94.10;;;;;;5070468;28;20078;-60
2021/04/26 00:59:21;;;;;;;8.68;2.85;;;2.00;94.50;;;;;;5084995;28;20109;-60
2021/04/26 01:01:47;;;;;;;7.70;3.20;;;2.00;94.50;;;;;;5074204;28;20471;-59
2021/04/26 01:04:12;;;;;;;6.63;2.70;;;2.00;94.80;;;;;;5080116;28;20078;-59
2021/04/26 01:06:38;;;;;;;9.38;2.75;;;1.90;94.80;;;;;;5076479;28;20063;-59
2021/04/26 01:09:04;;;;;;;7.85;2.63;;;1.90;94.80;;;;;;5079746;28;20117;-60
2021/04/26 01:11:42;;;;;;;9.77;3.10;;;1.90;94.60;;;;;;5078913;28;20096;-59
2021/04/26 01:14:46;;;;;;;5.60;2.40;;;1.80;95.00;;;;;;5077226;28;20076;-59
2021/04/26 01:17:32;;;;;;;7.03;2.47;;;1.80;94.90;;;;;;5077842;28;20044;-60
2021/04/26 01:20:01;;;;;;;6.25;2.65;;;1.80;94.90;;;;;;5078728;28;20033;-60
2021/04/26 01:23:04;;;;;;;5.85;2.22;;;1.70;95.00;;;;;;5077722;28;20364;-59
2021/04/26 01:25:33;;;;;;;10.23;2.92;;;1.70;95.00;;;;;;5085575;28;20043;-59
2021/04/26 01:28:23;;;;;;;10.32;2.70;;;1.60;95.10;;;;;;5080865;28;20580;-59
2021/04/26 01:30:57;;;;;;;9.77;2.45;;;1.60;95.30;;;;;;5079834;28;20352;-59
2021/04/26 01:33:27;;;;;;;7.20;2.50;;;1.60;95.50;;;;;;5076498;28;20060;-59
2021/04/26 01:35:57;;;;;;;9.52;2.80;;;1.60;95.00;;;;;;5094694;28;20421;-60
2021/04/26 01:38:37;;;;;;;7.45;2.95;;;1.60;94.90;;;;;;5079609;28;20044;-59
2021/04/26 01:41:05;;;;;;;7.22;2.83;;;1.50;94.70;;;;;;5082775;28;20078;-59
2021/04/26 01:43:31;;;;;;;7.60;3.20;;;1.50;95.00;;;;;;5075700;28;20058;-60
2021/04/26 01:46:08;;;;;;;8.45;2.97;;;1.50;95.30;;;;;;5082452;28;20364;-59
2021/04/26 01:48:38;;;;;;;8.05;3.97;;;1.50;95.30;;;;;;5077849;28;20553;-59
2021/04/26 01:51:06;;;;;;;8.07;3.80;;;1.50;95.50;;;;;;5086443;28;20028;-60
2021/04/26 01:53:32;;;;;;;7.03;3.08;;;1.50;95.60;;;;;;5080505;28;20108;-60
2021/04/26 01:56:01;;;;;;;5.80;1.88;;;1.50;95.70;;;;;;5085714;28;20053;-60
2021/04/26 01:58:29;;;;;;;6.45;3.38;;;1.50;95.70;;;;;;5078538;28;20472;-60
2021/04/26 02:00:56;;;;;;;6.03;2.67;;;1.40;96.00;;;;;;5081345;28;20043;-59
2021/04/26 02:03:23;;;;;;;8.35;2.50;;;1.40;96.00;;;;;;5076027;28;20036;-59
2021/04/26 02:05:52;;;;;;;5.30;2.28;;;1.40;95.70;;;;;;5090106;28;20032;-61
2021/04/26 02:08:18;;;;;;;3.78;2.20;;;1.40;96.00;;;;;;5077566;28;20056;-60
2021/04/26 02:10:45;;;;;;;5.30;2.15;;;1.40;95.90;;;;;;5080067;28;20081;-60
2021/04/26 02:13:14;;;;;;;7.95;2.88;;;1.30;95.70;;;;;;5084150;28;20050;-60
2021/04/26 02:15:41;;;;;;;9.68;3.13;;;1.30;95.70;;;;;;5081763;28;20043;-60
2021/04/26 02:18:07;;;;;;;9.30;2.97;;;1.30;95.70;;;;;;5088284;28;20498;-60
2021/04/26 02:20:33;;;;;;;10.50;3.33;;;1.30;95.90;;;;;;5084334;28;20139;-60
2021/04/26 02:22:59;;;;;;;11.05;3.00;;;1.30;95.90;;;;;;5088820;28;20115;-60
2021/04/26 02:25:25;;;;;;;6.85;3.00;;;1.30;95.30;;;;;;5078928;28;20169;-60
2021/04/26 02:27:51;;;;;;;10.60;3.47;;;1.30;95.80;;;;;;5082655;28;20036;-60
2021/04/26 02:30:17;;;;;;;8.27;3.35;;;1.30;96.10;;;;;;5075526;28;20032;-60
2021/04/26 02:33:22;;;;;;;8.35;2.63;;;1.30;96.00;;;;;;5082925;28;20038;-60
2021/04/26 02:35:50;;;;;;;8.60;3.00;;;1.20;95.90;;;;;;5074899;28;20033;-60
2021/04/26 02:38:22;;;;;;;7.68;2.85;;;1.20;95.80;;;;;;5086828;28;20048;-60
2021/04/26 02:40:52;;;;;;;5.95;2.50;;;1.10;95.50;;;;;;5073298;28;20083;-61
2021/04/26 02:43:19;;;;;;;6.85;2.63;;;1.10;95.30;;;;;;5080738;28;20089;-61
2021/04/26 02:45:53;;;;;;;5.13;2.88;;;1.10;95.80;;;;;;5075389;28;20063;-60
2021/04/26 02:48:21;;;;;;;7.88;3.08;;;1.00;95.90;;;;;;5087362;28;20039;-60
2021/04/26 02:50:47;;;;;;;7.68;3.05;;;1.00;95.80;;;;;;5079989;28;20485;-61
2021/04/26 02:53:15;;;;;;;9.45;3.10;;;0.90;95.40;;;;;;5081566;28;20048;-60
2021/04/26 02:55:42;;;;;;;5.70;2.20;;;0.90;95.20;;;;;;5082283;28;20638;-60
2021/04/26 02:58:09;;;;;;;7.75;3.03;;;0.90;95.30;;;;;;5081733;28;20041;-60
2021/04/26 03:00:35;;;;;;;9.43;3.10;;;0.90;95.40;;;;;;5080547;28;20501;-60
2021/04/26 03:03:02;;;;;;;6.80;3.17;;;0.90;95.90;;;;;;5084562;28;20506;-60
2021/04/26 03:05:28;;;;;;;5.60;2.78;;;0.80;95.60;;;;;;5081568;28;20075;-60
2021/04/26 03:07:54;;;;;;;7.55;3.28;;;0.90;95.80;;;;;;5078489;28;20130;-60
2021/04/26 03:10:21;;;;;;;6.10;2.90;;;0.80;96.20;;;;;;5074548;28;20044;-61
2021/04/26 03:12:51;;;;;;;5.60;3.25;;;0.90;96.40;;;;;;5080576;28;20033;-60
2021/04/26 03:15:21;;;;;;;7.00;2.67;;;0.80;96.20;;;;;;5078017;28;20032;-60
2021/04/26 03:17:47;;;;;;;4.82;2.72;;;0.80;96.00;;;;;;5079389;28;20407;-60
2021/04/26 03:20:15;;;;;;;5.25;3.10;;;0.80;95.90;;;;;;5081391;28;20047;-60
2021/04/26 03:22:43;;;;;;;6.82;2.88;;;0.80;96.30;;;;;;5071628;28;20036;-60
2021/04/26 03:25:11;;;;;;;6.03;3.08;;;0.80;96.60;;;;;;5083029;28;20419;-60
2021/04/26 03:27:39;;;;;;;8.88;3.08;;;0.70;96.80;;;;;;5080096;28;20036;-60
2021/04/26 03:30:06;;;;;;;7.07;3.03;;;0.70;96.60;;;;;;5082093;28;20048;-60
2021/04/26 03:32:32;;;;;;;5.10;2.63;;;0.70;96.90;;;;;;5074516;28;20107;-60
2021/04/26 03:34:58;;;;;;;4.68;2.40;;;0.60;97.10;;;;;;5082095;28;20044;-60
2021/04/26 03:37:25;;;;;;;5.15;2.20;;;0.60;96.90;;;;;;5081569;28;20050;-60
2021/04/26 03:39:52;;;;;;;4.93;2.72;;;0.60;96.90;;;;;;5076542;28;20046;-60
2021/04/26 03:42:18;;;;;;;6.95;2.22;;;0.60;97.00;;;;;;5079070;28;20070;-60
2021/04/26 03:44:46;;;;;;;4.00;2.50;;;0.60;97.00;;;;;;5079572;28;20048;-60
2021/04/26 03:47:12;;;;;;;5.72;2.72;;;0.60;96.80;;;;;;5073521;28;20064;-61
2021/04/26 03:49:39;;;;;;;6.05;2.58;;;0.60;96.90;;;;;;5081110;28;20094;-60
2021/04/26 03:52:06;;;;;;;5.20;2.42;;;0.50;96.90;;;;;;5078883;28;20066;-60
2021/04/26 03:54:33;;;;;;;3.08;1.90;;;0.50;96.90;;;;;;5083371;28;20100;-60
2021/04/26 03:57:00;;;;;;;9.27;3.15;;;0.50;96.50;;;;;;5078888;28;20057;-60
2021/04/26 03:59:26;;;;;;;4.78;2.70;;;0.50;96.50;;;;;;5077076;28;20108;-60
2021/04/26 04:01:53;;;;;;;5.82;2.60;;;0.40;96.50;;;;;;5085045;28;20364;-60
2021/04/26 04:04:18;;;;;;;4.22;2.38;;;0.40;96.40;;;;;;5073022;28;20222;-60
2021/04/26 04:06:44;;;;;;;4.07;2.08;;;0.40;96.30;;;;;;5081349;28;20047;-60
2021/04/26 04:09:10;;;;;;;2.78;2.22;;;0.30;96.70;;;;;;5073173;28;20430;-60
2021/04/26 04:11:37;;;;;;;3.00;2.25;;;0.30;96.30;;;;;;5085080;28;20111;-60
2021/04/26 04:14:04;;;;;;;5.43;2.97;;;0.20;96.70;;;;;;5069335;28;20166;-60
2021/04/26 04:16:30;;;;;;;5.38;2.95;;;0.20;97.00;;;;;;5077528;28;20092;-60
2021/04/26 04:18:56;;;;;;;3.08;2.60;;;0.20;97.20;;;;;;5079649;28;20529;-60
2021/04/26 04:21:22;;;;;;;2.72;2.28;;;0.10;97.50;;;;;;5079568;28;20097;-60
2021/04/26 04:23:48;;;;;;;3.38;2.35;;;0.10;97.40;;;;;;5075379;28;20472;-60
2021/04/26 04:26:14;;;;;;;3.65;2.47;;;0.10;97.00;;;;;;5081306;28;20151;-60
2021/04/26 04:28:40;;;;;;;7.60;2.78;;;0.10;97.10;;;;;;5080085;28;20110;-60
2021/04/26 04:31:06;;;;;;;4.88;2.60;;;0.10;97.30;;;;;;5080650;28;20039;-60
2021/04/26 04:33:32;;;;;;;3.33;2.70;;;0.10;96.90;;;;;;5072182;28;20044;-60
2021/04/26 04:35:58;;;;;;;30.90;20.98;;;0.10;97.30;;;;;;5078866;28;20036;-60
2021/04/26 04:38:27;;;;;;;8.25;5.65;;;0.10;97.50;;;;;;5080723;28;20514;-60
2021/04/26 04:40:55;;;;;;;4.78;2.97;;;0.10;97.30;;;;;;5073162;28;20052;-60
2021/04/26 04:43:21;;;;;;;6.22;3.38;;;0.20;97.50;;;;;;5077249;28;20032;-60
2021/04/26 04:45:48;;;;;;;4.20;2.78;;;0.20;97.50;;;;;;5077025;28;20039;-60
2021/04/26 04:48:13;;;;;;;4.15;2.92;;;0.20;97.50;;;;;;5081242;28;20048;-60
2021/04/26 04:50:39;;;;;;;4.72;2.97;;;0.10;97.30;;;;;;5069863;28;20387;-60
2021/04/26 04:53:05;;;;;;;4.80;2.90;;;0.20;97.30;;;;;;5083893;28;20043;-60
2021/04/26 04:55:31;;;;;;;4.25;2.72;;;0.20;97.50;;;;;;5074261;28;20040;-60
2021/04/26 04:57:57;;;;;;;6.97;3.47;;;0.30;97.90;;;;;;5087149;28;20483;-60
2021/04/26 05:00:23;;;;;;;5.43;3.03;;;0.30;97.90;;;;;;5069892;28;20097;-61
2021/04/26 05:02:48;;;;;;;5.15;3.10;;;0.30;97.90;;;;;;5085878;28;20048;-60
2021/04/26 05:05:14;;;;;;;5.72;2.72;;;0.40;97.60;;;;;;5077055;28;20062;-61
2021/04/26 05:07:40;;;;;;;4.82;3.20;;;0.60;97.60;;;;;;5085442;28;20047;-61
2021/04/26 05:10:06;;;;;;;5.90;3.33;;;0.60;97.10;;;;;;5082083;28;20036;-60
2021/04/26 05:12:33;;;;;;;7.47;4.05;;;0.80;97.00;;;;;;5079674;28;20078;-59
2021/04/26 05:14:59;;;;;;;7.30;3.53;;;0.90;97.30;;;;;;5082195;28;20489;-60
2021/04/26 05:17:26;;;;;;;6.32;3.42;;;1.00;97.60;;;;;;5084071;28;20112;-61
2021/04/26 05:19:52;;;;;;;5.82;3.65;;;1.30;97.60;;;;;;5088097;28;20036;-60
2021/04/26 05:22:18;;;;;;;5.85;3.22;;;1.40;97.40;;;;;;5078954;28;20240;-61
2021/04/26 05:24:44;;;;;;;7.28;3.20;;;1.60;97.10;;;;;;5084582;28;20054;-61
2021/04/26 05:27:10;;;;;;;8.20;3.58;;;1.70;97.10;;;;;;5080090;28;20474;-61
2021/04/26 05:29:36;;;;;;;5.40;2.88;;;1.80;97.20;;;;;;5086134;28;20051;-61
2021/04/26 05:32:02;;;;;;;6.20;3.22;;;2.00;96.90;;;;;;5074291;28;20127;-62
2021/04/26 05:34:28;;;;;;;8.15;3.25;;;2.20;97.20;;;;;;5085910;28;20476;-61
2021/04/26 05:36:54;;;;;;;8.82;3.17;;;2.40;97.20;;;;;;5080936;28;20050;-61
2021/04/26 05:39:20;;;;;;;7.15;2.90;;;2.70;96.80;;;;;;5085976;28;20063;-59
2021/04/26 05:41:46;;;;;;;5.43;2.58;;;3.10;96.60;;;;;;5080820;28;20036;-61
2021/04/26 05:44:12;;;;;;;7.88;3.00;;;3.30;96.10;;;;;;5084424;28;20048;-61
2021/04/26 05:46:38;;;;;;;8.23;2.67;;;3.60;95.90;;;;;;5080994;28;20116;-61
2021/04/26 05:49:04;;;;;;;7.40;2.50;;;3.80;95.60;;;;;;5087907;28;20479;-61
2021/04/26 05:51:30;;;;;;;8.68;2.55;;;4.00;95.50;;;;;;5081027;28;20047;-61
2021/04/26 05:53:55;;;;;;;9.45;3.13;;;4.00;95.10;;;;;;5080751;28;20044;-64
2021/04/26 05:56:21;;;;;;;8.02;2.40;;;4.20;95.10;;;;;;5088309;28;20068;-61
2021/04/26 05:58:49;;;;;;;7.65;2.45;;;4.20;94.80;;;;;;5075544;28;20052;-61
2021/04/26 06:01:15;;;;;;;6.38;2.10;;;4.30;94.60;;;;;;5085514;28;20058;-61
2021/04/26 06:03:41;;;;;;;8.15;2.22;;;4.40;94.50;;;;;;5080843;28;20048;-61
2021/04/26 06:06:06;;;;;;;6.95;1.98;;;4.40;94.30;;;;;;5087904;28;20096;-61
2021/04/26 06:08:32;;;;;;;10.15;2.78;;;4.50;94.30;;;;;;5078371;28;20071;-61
2021/04/26 06:10:58;;;;;;;7.75;2.00;;;4.70;94.10;;;;;;5082312;28;20039;-61
2021/04/26 06:13:23;;;;;;;6.57;2.00;;;4.80;94.10;;;;;;5077621;28;20092;-61
2021/04/26 06:15:49;;;;;;;4.85;2.00;;;4.90;93.70;;;;;;5089556;28;20123;-61
2021/04/26 06:18:18;;;;;;;4.03;1.73;;;5.00;93.60;;;;;;5088045;28;20036;-61
2021/04/26 06:20:45;;;;;;;6.45;1.83;;;5.10;93.30;;;;;;5093005;28;20040;-59
2021/04/26 06:23:11;;;;;;;11.80;2.53;;;5.20;93.10;;;;;;5080077;28;20032;-59
2021/04/26 06:25:39;;;;;;;5.18;1.42;;;5.40;93.20;;;;;;5083840;28;20118;-59
2021/04/26 06:28:05;;;;;;;5.35;2.00;;;5.50;92.80;;;;;;5077175;28;20116;-59
2021/04/26 06:30:31;;;;;;;4.50;1.40;;;5.60;92.70;;;;;;5091347;28;20483;-58
2021/04/26 06:32:57;;;;;;;5.38;1.40;;;5.80;92.20;;;;;;5085747;28;20047;-59
2021/04/26 06:35:24;;;;;;;5.70;1.63;;;5.90;92.00;;;;;;5083168;28;20036;-59
2021/04/26 06:37:49;;;;;;;7.10;1.30;;;5.90;91.60;;;;;;5082005;28;20059;-59
2021/04/26 06:40:15;;;;;;;8.10;1.80;;;6.00;91.30;;;;;;5080020;28;20040;-61
2021/04/26 06:42:43;;;;;;;7.93;1.70;;;6.20;91.00;;;;;;5083295;28;20044;-61
2021/04/26 06:45:09;;;;;;;9.02;2.10;;;6.30;91.20;;;;;;5076605;28;20072;-61
2021/04/26 06:47:36;;;;;;;7.10;1.75;;;6.40;90.90;;;;;;5090516;28;20483;-61
2021/04/26 06:50:03;;;;;;;3.92;1.60;;;6.50;90.70;;;;;;5078566;28;20043;-61
2021/04/26 06:52:28;;;;;;;8.43;1.77;;;6.60;90.50;;;;;;5090400;28;20044;-61
2021/04/26 06:54:54;;;;;;;4.45;1.40;;;6.80;90.30;;;;;;5073489;28;20365;-59
2021/04/26 06:57:20;;;;;;;5.63;1.40;;;6.90;90.30;;;;;;5080323;28;20062;-59
2021/04/26 06:59:46;;;;;;;8.82;1.83;;;7.10;90.00;;;;;;5082617;28;20039;-59
2021/04/26 07:02:12;;;;;;;7.10;1.70;;;7.30;87.10;;;;;;5090264;28;20534;-59
2021/04/26 07:04:38;;;;;;;5.13;1.25;;;7.30;87.30;;;;;;5071308;28;20045;-59
2021/04/26 07:07:04;;;;;;;6.32;1.60;;;7.40;87.40;;;;;;5089268;28;20090;-60
2021/04/26 07:09:30;;;;;;;6.78;1.77;;;7.60;87.10;;;;;;5078259;28;20047;-60
2021/04/26 07:11:57;;;;;;;9.27;1.48;;;7.60;85.50;;;;;;5083275;28;20044;-60
2021/04/26 07:14:25;;;;;;;7.85;1.88;;;7.70;85.40;;;;;;5081430;28;20122;-60
2021/04/26 07:16:51;;;;;;;9.57;1.98;;;7.70;84.30;;;;;;5080081;28;20135;-60
2021/04/26 07:19:16;;;;;;;6.05;1.90;;;7.70;84.10;;;;;;5083234;28;20038;-61
2021/04/26 07:21:42;;;;;;;6.10;1.38;;;7.80;84.10;;;;;;5076989;28;20677;-60
2021/04/26 07:24:08;;;;;;;4.50;1.88;;;8.00;84.20;;;;;;5078034;28;20086;-60
2021/04/26 07:26:34;;;;;;;6.05;1.42;;;8.00;83.20;;;;;;5072525;28;21031;-60
2021/04/26 07:29:01;;;;;;;5.03;2.13;;;8.10;80.40;;;;;;5077886;28;20517;-60
2021/04/26 07:31:27;;;;;;;7.15;3.33;;;8.40;79.10;;;;;;5073112;28;20479;-60
2021/04/26 07:33:52;;;;;;;8.60;1.80;;;8.50;79.30;;;;;;5083224;28;20092;-60
2021/04/26 07:36:18;;;;;;;5.05;1.60;;;8.60;79.10;;;;;;5074824;28;20040;-59
2021/04/26 07:38:44;;;;;;;6.88;1.40;;;9.00;78.00;;;;;;5081052;28;20364;-60
2021/04/26 07:41:10;;;;;;;8.43;1.50;;;9.30;76.40;;;;;;5077630;28;20440;-60
2021/04/26 07:43:38;;;;;;;9.38;1.75;;;10.00;76.80;;;;;;5080530;28;20423;-60
2021/04/26 07:46:03;;;;;;;6.70;1.25;;;10.70;71.10;;;;;;5072421;28;20044;-60
2021/04/26 07:48:29;;;;;;;4.53;0.95;;;10.80;68.20;;;;;;5078777;28;20435;-60
2021/04/26 07:50:55;;;;;;;5.68;1.10;;;11.20;68.20;;;;;;5084753;28;20058;-60
2021/04/26 07:53:21;;;;;;;6.15;1.30;;;11.30;66.50;;;;;;5076319;28;20052;-60
2021/04/26 07:55:47;;;;;;;5.75;1.10;;;11.30;65.30;;;;;;5082744;28;20040;-60
2021/04/26 07:58:12;;;;;;;4.97;1.00;;;11.10;65.50;;;;;;5074083;28;20109;-60
2021/04/26 08:00:38;;;;;;;5.68;1.30;;;11.10;66.70;;;;;;5083250;28;20044;-59
2021/04/26 08:03:04;;;;;;;4.50;1.33;;;11.00;65.80;;;;;;5079278;28;20036;-60
2021/04/26 08:05:30;;;;;;;7.90;1.35;;;10.70;63.60;;;;;;5084540;28;20044;-60
2021/04/26 08:07:56;;;;;;;8.40;1.30;;;10.50;64.50;;;;;;5073891;28;20047;-60
2021/04/26 08:10:22;;;;;;;4.28;1.25;;;10.50;65.30;;;;;;5076752;28;20040;-60
2021/04/26 08:12:48;;;;;;;5.13;1.30;;;10.20;64.30;;;;;;5080035;28;20051;-61
2021/04/26 08:15:14;;;;;;;5.90;1.70;;;10.00;65.00;;;;;;5086431;28;20106;-60
2021/04/26 08:17:40;;;;;;;7.88;1.02;;;9.90;63.30;;;;;;5077763;28;20040;-60
2021/04/26 08:20:07;;;;;;;6.22;2.00;;;9.70;62.90;;;;;;5080605;28;20506;-60
2021/04/26 08:22:33;;;;;;;7.22;1.92;;;9.60;60.70;;;;;;5073677;28;20419;-61
2021/04/26 08:24:59;;;;;;;4.60;1.45;;;9.60;60.60;;;;;;5078837;28;20380;-60
2021/04/26 08:27:25;;;;;;;2.33;0.80;;;10.50;61.60;;;;;;5084649;28;20040;-60
2021/04/26 08:29:51;;;;;;;5.65;0.93;;;10.50;55.50;;;;;;5076008;28;20032;-60
2021/04/26 08:32:17;;;;;;;4.38;0.93;;;10.10;57.70;;;;;;5077814;28;20044;-60
2021/04/26 08:34:43;;;;;;;3.80;0.80;;;9.60;59.00;;;;;;5077063;28;20071;-60
2021/04/26 08:37:09;;;;;;;3.88;0.90;;;9.50;58.70;;;;;;5083031;28;20082;-60
2021/04/26 08:39:34;;;;;;;4.43;0.80;;;9.30;54.20;;;;;;5075279;28;20066;-61
2021/04/26 08:42:00;;;;;;;4.95;1.33;;;9.30;56.40;;;;;;5089362;28;20520;-60
2021/04/26 08:44:27;;;;;;;3.63;1.20;;;9.30;56.40;;;;;;5076758;28;20139;-60
2021/04/26 08:46:55;;;;;;;3.30;1.05;;;9.70;56.60;;;;;;5082002;28;20045;-60
2021/04/26 08:49:21;;;;;;;3.92;1.25;;;10.40;55.20;;;;;;5072928;28;20040;-61
2021/04/26 08:51:47;;;;;;;7.00;1.30;;;10.40;55.00;;;;;;5086943;28;20039;-60
2021/04/26 08:54:14;;;;;;;4.15;1.08;;;10.70;54.90;;;;;;5078755;28;20072;-61
2021/04/26 08:56:40;;;;;;;5.97;1.58;;;11.60;53.80;;;;;;5080228;28;20044;-61
2021/04/26 08:59:06;;;;;;;4.35;1.30;;;12.50;50.80;;;;;;5082025;28;20040;-61
2021/04/26 09:01:32;;;;;;;5.82;2.40;;;13.10;51.70;;;;;;5082363;28;20043;-61
2021/04/26 09:04:09;;;;;;;2.65;0.85;;;13.50;49.90;;;;;;5075118;28;20036;-62
2021/04/26 09:07:02;;;;;;;6.45;1.52;;;14.00;49.00;;;;;;5088649;28;20044;-61
2021/04/26 09:10:00;;;;;;;3.40;1.10;;;14.70;44.10;;;;;;5081675;28;20126;-61
2021/04/26 09:12:30;;;;;;;3.22;1.05;;;15.00;43.70;;;;;;5075283;28;20418;-61
2021/04/26 09:14:58;;;;;;;6.03;1.17;;;15.60;45.50;;;;;;5072687;28;20531;-61
2021/04/26 09:17:34;;;;;;;4.05;0.90;;;15.80;44.00;;;;;;5084879;28;20036;-62
2021/04/26 09:20:06;;;;;;;5.28;1.20;;;16.10;43.40;;;;;;5069273;28;20028;-61
2021/04/26 09:22:38;;;;;;;4.55;1.25;;;16.00;40.90;;;;;;5082029;28;20220;-62
2021/04/26 09:25:24;;;;;;;6.15;1.00;;;15.80;40.00;;;;;;5071032;28;20126;-62
2021/04/26 09:27:55;;;;;;;5.70;0.98;;;16.10;40.80;;;;;;5083285;28;20033;-62
2021/04/26 09:30:52;;;;;;;4.60;1.30;;;16.20;42.10;;;;;;5067444;28;20056;-60
2021/04/26 09:33:22;;;;;;;4.32;1.38;;;16.20;39.60;;;;;;5082388;28;20036;-61
2021/04/26 09:36:19;;;;;;;1.85;0.70;;;15.80;40.20;;;;;;5075178;28;20036;-61
2021/04/26 09:38:53;;;;;;;3.35;1.08;;;15.80;40.30;;;;;;5078326;28;20090;-63
2021/04/26 09:41:33;;;;;;;3.20;1.02;;;15.60;36.70;;;;;;5075760;28;20043;-59
2021/04/26 09:44:02;;;;;;;3.35;0.93;;;15.50;40.20;;;;;;5087075;28;20044;-63
2021/04/26 09:46:49;;;;;;;4.35;1.05;;;15.80;41.90;;;;;;5072938;28;20479;-62
2021/04/26 09:49:20;;;;;;;2.75;0.90;;;15.70;38.00;;;;;;5081274;28;20498;-63
2021/04/26 09:51:49;;;;;;;7.43;1.17;;;15.60;39.30;;;;;;5084091;28;20036;-62
2021/04/26 09:54:15;;;;;;;2.95;0.98;;;15.40;40.30;;;;;;5090625;28;20119;-63
2021/04/26 09:56:43;;;;;;;3.00;0.80;;;15.10;39.60;;;;;;5075644;28;20033;-63
2021/04/26 09:59:11;;;;;;;5.75;1.05;;;14.90;39.60;;;;;;5084641;28;20123;-61
2021/04/26 10:01:37;;;;;;;3.72;0.82;;;15.00;40.60;;;;;;5079619;28;20051;-62
2021/04/26 10:04:05;;;;;;;2.55;0.65;;;15.30;39.60;;;;;;5086600;28;20440;-60
2021/04/26 10:06:31;;;;;;;3.55;0.90;;;14.90;38.50;;;;;;5077562;28;20036;-65
2021/04/26 10:09:03;;;;;;;2.78;0.93;;;15.10;41.10;;;;;;5086038;28;20043;-64
2021/04/26 10:11:31;;;;;;;4.60;0.95;;;14.90;38.40;;;;;;5072106;28;20040;-63
2021/04/26 10:14:13;;;;;;;4.60;0.88;;;14.90;39.20;;;;;;5089163;28;20036;-63
2021/04/26 10:17:00;;;;;;;3.05;0.77;;;15.10;39.50;;;;;;5079186;28;20506;-65
2021/04/26 10:19:43;;;;;;;4.25;0.90;;;15.50;39.60;;;;;;5077354;28;20085;-62
2021/04/26 10:22:09;;;;;;;4.65;0.65;;;16.00;40.30;;;;;;5073418;28;20028;-63
2021/04/26 10:24:48;;;;;;;4.35;0.82;;;16.00;36.30;;;;;;5087121;28;20055;-61
2021/04/26 10:27:38;;;;;;;4.82;0.93;;;16.20;37.30;;;;;;5079841;28;20476;-62
2021/04/26 10:30:16;;;;;;;4.00;0.93;;;16.30;34.40;;;;;;5087090;28;20036;-64
2021/04/26 10:33:04;;;;;;;2.33;0.70;;;16.00;36.40;;;;;;5072093;28;20265;-60
2021/04/26 10:35:55;;;;;;;3.55;0.77;;;16.20;34.40;;;;;;5078205;28;20090;-60
2021/04/26 10:38:37;;;;;;;3.67;1.10;;;16.00;33.40;;;;;;5071770;28;20039;-61
2021/04/26 10:41:05;;;;;;;2.70;0.73;;;16.00;34.40;;;;;;5086711;28;20049;-62
2021/04/26 10:43:32;;;;;;;3.55;0.80;;;15.90;35.90;;;;;;5075147;28;20082;-61
2021/04/26 10:46:16;;;;;;;4.10;0.73;;;16.10;33.80;;;;;;5081748;28;20040;-60
2021/04/26 10:49:01;;;;;;;;;;;16.00;34.00;;;;;;5074985;28;20616;-62
2021/04/26 10:51:26;;;;;;;2.65;0.77;;;15.70;34.40;;;;;;5081126;28;20452;-61
2021/04/26 10:53:52;;;;;;;2.75;0.70;;;15.60;34.40;;;;;;5072542;28;20056;-63
2021/04/26 10:56:26;;;;;;;3.30;0.50;;;15.70;35.30;;;;;;5083606;28;20048;-61
2021/04/26 10:59:17;;;;;;;2.97;0.70;;;15.40;32.30;;;;;;5074651;28;20044;-63
2021/04/26 11:01:48;;;;;;;3.45;0.68;;;15.10;35.10;;;;;;5082461;28;20040;-61
2021/04/26 11:04:14;;;;;;;3.08;0.70;;;15.00;34.70;;;;;;5072628;28;20548;-62
2021/04/26 11:06:58;;;;;;;3.30;0.85;;;15.10;33.20;;;;;;5079666;28;20403;-60
2021/04/26 11:09:35;;;;;;;4.10;0.50;;;15.50;35.00;;;;;;5075774;28;20051;-59
2021/04/26 11:12:03;;;;;;;4.80;0.82;;;15.90;33.40;;;;;;5083943;28;20111;-60
2021/04/26 11:14:30;;;;;;;3.35;0.65;;;16.20;32.90;;;;;;5073547;28;20036;-60
2021/04/26 11:17:03;;;;;;;6.72;0.88;;;16.20;32.80;;;;;;5079941;28;20203;-61
2021/04/26 11:19:30;;;;;;;2.10;0.50;;;16.10;29.50;;;;;;5077505;28;20053;-59
2021/04/26 11:21:57;;;;;;;2.90;0.57;;;16.40;31.80;;;;;;5079828;28;20057;-59
2021/04/26 11:24:26;;;;;;;1.63;0.70;;;16.60;32.60;;;;;;5073639;28;20351;-61
2021/04/26 11:27:19;;;;;;;3.00;0.75;;;16.60;30.40;;;;;;5081770;28;20044;-60
2021/04/26 11:29:45;;;;;;;2.03;0.50;;;16.10;30.50;;;;;;5078433;28;20044;-61
2021/04/26 11:32:12;;;;;;;1.75;0.60;;;15.70;30.70;;;;;;5080098;28;20039;-61
2021/04/26 11:34:47;;;;;;;3.05;0.75;;;15.90;32.00;;;;;;5080451;28;20431;-61
2021/04/26 11:37:23;;;;;;;3.67;0.75;;;16.20;32.80;;;;;;5082990;28;20510;-60
2021/04/26 11:39:54;;;;;;;4.20;0.90;;;16.70;30.10;;;;;;5081432;28;20036;-60
2021/04/26 11:42:21;;;;;;;3.08;1.10;;;16.90;31.30;;;;;;5076634;28;20039;-60
2021/04/26 11:44:47;;;;;;;3.65;1.00;;;16.30;30.00;;;;;;5083336;28;20052;-60
2021/04/26 11:47:15;;;;;;;3.53;0.80;;;16.60;31.30;;;;;;5074485;28;20539;-60
2021/04/26 11:49:44;;;;;;;3.03;0.70;;;16.70;32.50;;;;;;5080098;28;21116;-60
2021/04/26 11:52:16;;;;;;;2.42;0.50;;;16.70;30.20;;;;;;5076739;28;20079;-62
2021/04/26 11:54:44;;;;;;;5.68;0.88;;;16.20;30.20;;;;;;5081269;28;20079;-61
2021/04/26 11:57:14;;;;;;;8.18;1.13;;;16.10;30.00;;;;;;5075810;28;20036;-60
2021/04/26 11:59:58;;;;;;;1.55;0.40;;;16.10;30.70;;;;;;5081518;28;20040;-60
2021/04/26 12:02:39;;;;;;;3.08;0.70;;;16.60;29.70;;;;;;5071090;28;20108;-60
2021/04/26 12:05:15;;;;;;;6.82;1.13;;;17.10;30.40;;;;;;5080984;28;20040;-61
2021/04/26 12:07:43;;;;;;;4.85;0.70;;;17.00;29.50;;;;;;5073925;28;20499;-61
2021/04/26 12:10:14;;;;;;;2.42;0.70;;;17.00;28.40;;;;;;5079198;28;20127;-61
2021/04/26 12:12:41;;;;;;;2.17;0.70;;;16.90;29.20;;;;;;5073058;28;20457;-61
2021/04/26 12:15:19;;;;;;;6.90;1.17;;;16.70;29.20;;;;;;5082069;28;20075;-61
2021/04/26 12:17:50;;;;;;;1.25;0.80;;;16.50;29.30;;;;;;5073455;28;20044;-61
2021/04/26 12:20:23;;;;;;;3.72;0.80;;;16.70;30.10;;;;;;5077245;28;20040;-61
2021/04/26 12:22:51;;;;;;;2.20;0.70;;;16.90;28.80;;;;;;5075189;28;20127;-61
2021/04/26 12:25:18;;;;;;;3.05;1.00;;;16.90;29.00;;;;;;5080836;28;20472;-61
2021/04/26 12:27:45;;;;;;;1.83;0.80;;;17.00;29.00;;;;;;5072078;28;20108;-61
2021/04/26 12:30:14;;;;;;;4.18;0.90;;;17.40;28.80;;;;;;5082958;28;20048;-60
2021/04/26 12:32:40;;;;;;;3.30;1.02;;;17.30;29.60;;;;;;5071122;28;20170;-61
2021/04/26 12:35:09;;;;;;;4.97;0.90;;;17.40;29.80;;;;;;5079493;28;20510;-62
2021/04/26 12:37:38;;;;;;;2.13;0.90;;;16.90;30.10;;;;;;5073617;28;20491;-63
2021/04/26 12:40:12;;;;;;;2.72;0.80;;;17.30;29.60;;;;;;5080057;28;20043;-61
2021/04/26 12:42:38;;;;;;;2.65;0.80;;;17.50;29.10;;;;;;5076104;28;20117;-61
2021/04/26 12:45:21;;;;;;;3.50;0.82;;;17.60;28.70;;;;;;5081440;28;20498;-62
2021/04/26 12:47:54;;;;;;;2.28;0.95;;;17.40;27.40;;;;;;5076050;28;20040;-62
2021/04/26 12:50:26;;;;;;;3.45;1.00;;;17.20;29.70;;;;;;5080073;28;20040;-61
2021/04/26 12:53:11;;;;;;;7.15;1.63;;;17.00;29.30;;;;;;5075058;28;20144;-61
2021/04/26 12:55:44;;;;;;;2.83;1.00;;;17.00;29.90;;;;;;5077150;28;20407;-60
2021/04/26 12:58:12;;;;;;;2.95;1.00;;;16.70;29.20;;;;;;5075513;28;20045;-61
2021/04/26 13:00:42;;;;;;;3.80;1.02;;;16.60;30.80;;;;;;5080022;28;20111;-60
2021/04/26 13:03:35;;;;;;;3.50;1.08;;;16.40;30.90;;;;;;5075210;28;20154;-60